sensor_id;sensor_type;location;lat;lon;timestamp;P1;durP1;ratioP1;P2;durP2;ratioP2
55090;SDS011;40985;53.180;5.800;2023-08-07T00:00:27;10.02;;;0.60;;
55090;SDS011;40985;53.180;5.800;2023-08-07T00:02:53;11.23;;;0.75;;
55090;SDS011;40985;53.180;5.800;2023-08-07T00:05:18;9.85;;;0.90;;
55090;SDS011;40985;53.180;5.800;2023-08-07T00:07:44;13.98;;;1.67;;
55090;SDS011;40985;53.180;5.800;2023-08-07T00:10:10;10.60;;;1.10;;
55090;SDS011;40985;53.180;5.800;2023-08-07T00:12:35;15.18;;;1.30;;
55090;SDS011;40985;53.180;5.800;2023-08-07T00:15:01;20.13;;;1.17;;
55090;SDS011;40985;53.180;5.800;2023-08-07T00:17:28;10.93;;;0.77;;
55090;SDS011;40985;53.180;5.800;2023-08-07T00:19:54;8.82;;;0.70;;
55090;SDS011;40985;53.180;5.800;2023-08-07T00:22:20;6.93;;;0.60;;
55090;SDS011;40985;53.180;5.800;2023-08-07T00:24:45;10.32;;;0.68;;
55090;SDS011;40985;53.180;5.800;2023-08-07T00:27:11;6.78;;;0.50;;
55090;SDS011;40985;53.180;5.800;2023-08-07T00:29:37;7.50;;;0.68;;
55090;SDS011;40985;53.180;5.800;2023-08-07T00:32:04;9.00;;;0.70;;
55090;SDS011;40985;53.180;5.800;2023-08-07T00:34:30;6.35;;;0.70;;
55090;SDS011;40985;53.180;5.800;2023-08-07T00:36:56;10.13;;;1.02;;
55090;SDS011;40985;53.180;5.800;2023-08-07T00:39:21;7.35;;;1.00;;
55090;SDS011;40985;53.180;5.800;2023-08-07T00:41:47;9.65;;;0.85;;
55090;SDS011;40985;53.180;5.800;2023-08-07T00:44:13;6.72;;;0.68;;
55090;SDS011;40985;53.180;5.800;2023-08-07T00:46:39;9.63;;;0.82;;
55090;SDS011;40985;53.180;5.800;2023-08-07T00:49:05;11.60;;;0.73;;
55090;SDS011;40985;53.180;5.800;2023-08-07T00:51:33;14.10;;;1.00;;
55090;SDS011;40985;53.180;5.800;2023-08-07T00:54:00;11.23;;;0.77;;
55090;SDS011;40985;53.180;5.800;2023-08-07T00:56:28;8.07;;;0.75;;
55090;SDS011;40985;53.180;5.800;2023-08-07T00:58:55;10.30;;;1.05;;
55090;SDS011;40985;53.180;5.800;2023-08-07T01:01:21;10.13;;;0.80;;
55090;SDS011;40985;53.180;5.800;2023-08-07T01:03:46;11.00;;;0.73;;
55090;SDS011;40985;53.180;5.800;2023-08-07T01:06:12;8.23;;;0.80;;
55090;SDS011;40985;53.180;5.800;2023-08-07T01:08:38;7.53;;;0.95;;
55090;SDS011;40985;53.180;5.800;2023-08-07T01:11:24;11.60;;;1.08;;
55090;SDS011;40985;53.180;5.800;2023-08-07T01:16:51;11.57;;;1.15;;
55090;SDS011;40985;53.180;5.800;2023-08-07T01:19:23;9.27;;;1.00;;
55090;SDS011;40985;53.180;5.800;2023-08-07T01:22:03;12.48;;;0.93;;
55090;SDS011;40985;53.180;5.800;2023-08-07T01:24:36;10.48;;;1.05;;
55090;SDS011;40985;53.180;5.800;2023-08-07T01:27:07;11.68;;;1.02;;
55090;SDS011;40985;53.180;5.800;2023-08-07T01:29:59;8.57;;;0.70;;
55090;SDS011;40985;53.180;5.800;2023-08-07T01:35:49;14.50;;;0.77;;
55090;SDS011;40985;53.180;5.800;2023-08-07T01:38:18;9.93;;;0.95;;
55090;SDS011;40985;53.180;5.800;2023-08-07T01:40:49;11.15;;;0.95;;
55090;SDS011;40985;53.180;5.800;2023-08-07T01:43:16;13.75;;;1.17;;
55090;SDS011;40985;53.180;5.800;2023-08-07T01:45:43;12.30;;;1.10;;
55090;SDS011;40985;53.180;5.800;2023-08-07T01:48:09;12.15;;;1.00;;
55090;SDS011;40985;53.180;5.800;2023-08-07T01:50:36;7.55;;;1.00;;
55090;SDS011;40985;53.180;5.800;2023-08-07T01:53:03;11.82;;;1.00;;
55090;SDS011;40985;53.180;5.800;2023-08-07T01:55:29;11.10;;;1.00;;
55090;SDS011;40985;53.180;5.800;2023-08-07T01:57:55;10.88;;;1.38;;
55090;SDS011;40985;53.180;5.800;2023-08-07T02:00:20;8.18;;;0.85;;
55090;SDS011;40985;53.180;5.800;2023-08-07T02:02:46;14.73;;;1.00;;
55090;SDS011;40985;53.180;5.800;2023-08-07T02:05:12;13.93;;;0.82;;
55090;SDS011;40985;53.180;5.800;2023-08-07T02:07:38;11.00;;;0.73;;
55090;SDS011;40985;53.180;5.800;2023-08-07T02:10:04;10.20;;;0.80;;
55090;SDS011;40985;53.180;5.800;2023-08-07T02:12:30;10.23;;;0.95;;
55090;SDS011;40985;53.180;5.800;2023-08-07T02:15:00;4.57;;;0.60;;
55090;SDS011;40985;53.180;5.800;2023-08-07T02:17:29;10.55;;;0.95;;
55090;SDS011;40985;53.180;5.800;2023-08-07T02:19:55;11.73;;;1.25;;
55090;SDS011;40985;53.180;5.800;2023-08-07T02:22:21;7.90;;;0.50;;
55090;SDS011;40985;53.180;5.800;2023-08-07T02:24:47;5.95;;;0.50;;
55090;SDS011;40985;53.180;5.800;2023-08-07T02:27:13;5.30;;;0.60;;
55090;SDS011;40985;53.180;5.800;2023-08-07T02:29:38;3.85;;;0.43;;
55090;SDS011;40985;53.180;5.800;2023-08-07T02:32:04;4.13;;;0.55;;
55090;SDS011;40985;53.180;5.800;2023-08-07T02:34:30;4.22;;;0.52;;
55090;SDS011;40985;53.180;5.800;2023-08-07T02:36:56;8.32;;;0.80;;
55090;SDS011;40985;53.180;5.800;2023-08-07T02:39:22;11.82;;;1.45;;
55090;SDS011;40985;53.180;5.800;2023-08-07T02:41:48;7.00;;;0.68;;
55090;SDS011;40985;53.180;5.800;2023-08-07T02:44:13;7.22;;;1.00;;
55090;SDS011;40985;53.180;5.800;2023-08-07T02:46:39;15.85;;;1.95;;
55090;SDS011;40985;53.180;5.800;2023-08-07T02:49:05;13.52;;;1.60;;
55090;SDS011;40985;53.180;5.800;2023-08-07T02:51:31;12.95;;;1.88;;
55090;SDS011;40985;53.180;5.800;2023-08-07T02:53:57;21.25;;;3.33;;
55090;SDS011;40985;53.180;5.800;2023-08-07T02:56:23;21.40;;;3.33;;
55090;SDS011;40985;53.180;5.800;2023-08-07T02:58:48;25.70;;;3.08;;
55090;SDS011;40985;53.180;5.800;2023-08-07T03:01:14;28.65;;;3.30;;
55090;SDS011;40985;53.180;5.800;2023-08-07T03:03:40;24.23;;;2.78;;
55090;SDS011;40985;53.180;5.800;2023-08-07T03:06:05;21.63;;;2.63;;
55090;SDS011;40985;53.180;5.800;2023-08-07T03:08:31;17.80;;;2.97;;
55090;SDS011;40985;53.180;5.800;2023-08-07T03:10:57;19.90;;;2.30;;
55090;SDS011;40985;53.180;5.800;2023-08-07T03:13:23;17.27;;;2.00;;
55090;SDS011;40985;53.180;5.800;2023-08-07T03:15:54;13.27;;;2.10;;
55090;SDS011;40985;53.180;5.800;2023-08-07T03:18:24;18.05;;;2.13;;
55090;SDS011;40985;53.180;5.800;2023-08-07T03:20:50;13.57;;;1.80;;
55090;SDS011;40985;53.180;5.800;2023-08-07T03:23:15;14.43;;;2.17;;
55090;SDS011;40985;53.180;5.800;2023-08-07T03:25:41;18.88;;;2.85;;
55090;SDS011;40985;53.180;5.800;2023-08-07T03:28:07;16.55;;;2.38;;
55090;SDS011;40985;53.180;5.800;2023-08-07T03:30:32;11.38;;;2.30;;
55090;SDS011;40985;53.180;5.800;2023-08-07T03:32:58;14.88;;;2.30;;
55090;SDS011;40985;53.180;5.800;2023-08-07T03:35:24;15.07;;;2.13;;
55090;SDS011;40985;53.180;5.800;2023-08-07T03:37:49;16.02;;;3.78;;
55090;SDS011;40985;53.180;5.800;2023-08-07T03:40:15;16.10;;;2.65;;
55090;SDS011;40985;53.180;5.800;2023-08-07T03:42:40;11.20;;;2.08;;
55090;SDS011;40985;53.180;5.800;2023-08-07T03:45:06;12.98;;;1.80;;
55090;SDS011;40985;53.180;5.800;2023-08-07T03:47:32;8.25;;;1.48;;
55090;SDS011;40985;53.180;5.800;2023-08-07T03:49:58;11.82;;;1.70;;
55090;SDS011;40985;53.180;5.800;2023-08-07T03:52:24;7.72;;;1.30;;
55090;SDS011;40985;53.180;5.800;2023-08-07T03:54:49;11.57;;;1.55;;
55090;SDS011;40985;53.180;5.800;2023-08-07T03:57:15;10.95;;;2.00;;
55090;SDS011;40985;53.180;5.800;2023-08-07T03:59:40;11.43;;;2.13;;
55090;SDS011;40985;53.180;5.800;2023-08-07T04:02:06;17.67;;;2.13;;
55090;SDS011;40985;53.180;5.800;2023-08-07T04:04:32;16.08;;;1.83;;
55090;SDS011;40985;53.180;5.800;2023-08-07T04:06:57;15.25;;;2.17;;
55090;SDS011;40985;53.180;5.800;2023-08-07T04:09:23;23.85;;;3.08;;
55090;SDS011;40985;53.180;5.800;2023-08-07T04:11:49;14.57;;;2.90;;
55090;SDS011;40985;53.180;5.800;2023-08-07T04:14:14;20.27;;;3.05;;
55090;SDS011;40985;53.180;5.800;2023-08-07T04:16:40;21.33;;;3.63;;
55090;SDS011;40985;53.180;5.800;2023-08-07T04:19:06;21.25;;;3.33;;
55090;SDS011;40985;53.180;5.800;2023-08-07T04:21:34;12.00;;;2.67;;
55090;SDS011;40985;53.180;5.800;2023-08-07T04:24:00;22.38;;;2.85;;
55090;SDS011;40985;53.180;5.800;2023-08-07T04:26:26;20.67;;;3.05;;
55090;SDS011;40985;53.180;5.800;2023-08-07T04:28:52;16.73;;;2.40;;
55090;SDS011;40985;53.180;5.800;2023-08-07T04:31:17;14.85;;;2.65;;
55090;SDS011;40985;53.180;5.800;2023-08-07T04:33:44;20.42;;;3.55;;
55090;SDS011;40985;53.180;5.800;2023-08-07T04:36:09;18.27;;;2.70;;
55090;SDS011;40985;53.180;5.800;2023-08-07T04:38:35;19.42;;;3.60;;
55090;SDS011;40985;53.180;5.800;2023-08-07T04:41:01;18.00;;;3.00;;
55090;SDS011;40985;53.180;5.800;2023-08-07T04:43:28;17.73;;;2.67;;
55090;SDS011;40985;53.180;5.800;2023-08-07T04:45:54;21.40;;;3.47;;
55090;SDS011;40985;53.180;5.800;2023-08-07T04:48:19;15.50;;;2.60;;
55090;SDS011;40985;53.180;5.800;2023-08-07T04:50:46;19.40;;;2.88;;
55090;SDS011;40985;53.180;5.800;2023-08-07T04:53:11;22.00;;;3.03;;
55090;SDS011;40985;53.180;5.800;2023-08-07T04:55:38;11.90;;;2.33;;
55090;SDS011;40985;53.180;5.800;2023-08-07T04:58:03;21.48;;;3.13;;
55090;SDS011;40985;53.180;5.800;2023-08-07T05:00:29;15.45;;;2.95;;
55090;SDS011;40985;53.180;5.800;2023-08-07T05:02:55;24.67;;;3.10;;
55090;SDS011;40985;53.180;5.800;2023-08-07T05:05:20;18.77;;;2.65;;
55090;SDS011;40985;53.180;5.800;2023-08-07T05:07:47;20.38;;;3.30;;
55090;SDS011;40985;53.180;5.800;2023-08-07T05:10:13;18.67;;;2.40;;
55090;SDS011;40985;53.180;5.800;2023-08-07T05:12:38;16.38;;;2.78;;
55090;SDS011;40985;53.180;5.800;2023-08-07T05:15:04;12.63;;;2.17;;
55090;SDS011;40985;53.180;5.800;2023-08-07T05:17:31;20.20;;;2.30;;
55090;SDS011;40985;53.180;5.800;2023-08-07T05:19:57;23.45;;;2.53;;
55090;SDS011;40985;53.180;5.800;2023-08-07T05:22:22;20.60;;;2.22;;
55090;SDS011;40985;53.180;5.800;2023-08-07T05:24:48;15.45;;;2.80;;
55090;SDS011;40985;53.180;5.800;2023-08-07T05:27:14;16.20;;;2.40;;
55090;SDS011;40985;53.180;5.800;2023-08-07T05:29:40;17.98;;;2.78;;
55090;SDS011;40985;53.180;5.800;2023-08-07T05:32:12;16.50;;;1.90;;
55090;SDS011;40985;53.180;5.800;2023-08-07T05:34:38;14.27;;;2.15;;
55090;SDS011;40985;53.180;5.800;2023-08-07T05:37:05;16.20;;;2.20;;
55090;SDS011;40985;53.180;5.800;2023-08-07T05:39:31;9.98;;;1.95;;
55090;SDS011;40985;53.180;5.800;2023-08-07T05:41:57;17.73;;;2.60;;
55090;SDS011;40985;53.180;5.800;2023-08-07T05:44:23;18.23;;;2.85;;
55090;SDS011;40985;53.180;5.800;2023-08-07T05:46:49;10.43;;;1.92;;
55090;SDS011;40985;53.180;5.800;2023-08-07T05:49:15;12.75;;;1.77;;
55090;SDS011;40985;53.180;5.800;2023-08-07T05:51:41;20.23;;;3.15;;
55090;SDS011;40985;53.180;5.800;2023-08-07T05:54:07;15.35;;;1.67;;
55090;SDS011;40985;53.180;5.800;2023-08-07T05:56:33;13.95;;;1.75;;
55090;SDS011;40985;53.180;5.800;2023-08-07T05:58:58;10.80;;;1.58;;
55090;SDS011;40985;53.180;5.800;2023-08-07T06:01:24;9.45;;;1.48;;
55090;SDS011;40985;53.180;5.800;2023-08-07T06:03:58;14.80;;;1.60;;
55090;SDS011;40985;53.180;5.800;2023-08-07T06:06:24;9.32;;;1.08;;
55090;SDS011;40985;53.180;5.800;2023-08-07T06:08:50;7.30;;;1.08;;
55090;SDS011;40985;53.180;5.800;2023-08-07T06:11:16;8.43;;;1.20;;
55090;SDS011;40985;53.180;5.800;2023-08-07T06:13:42;10.30;;;1.02;;
55090;SDS011;40985;53.180;5.800;2023-08-07T06:16:08;10.80;;;1.13;;
55090;SDS011;40985;53.180;5.800;2023-08-07T06:18:34;12.13;;;1.73;;
55090;SDS011;40985;53.180;5.800;2023-08-07T06:21:00;12.75;;;1.00;;
55090;SDS011;40985;53.180;5.800;2023-08-07T06:23:26;11.88;;;1.35;;
55090;SDS011;40985;53.180;5.800;2023-08-07T06:25:51;7.57;;;1.08;;
55090;SDS011;40985;53.180;5.800;2023-08-07T06:28:17;7.03;;;1.08;;
55090;SDS011;40985;53.180;5.800;2023-08-07T06:30:43;10.15;;;1.52;;
55090;SDS011;40985;53.180;5.800;2023-08-07T06:33:08;6.40;;;0.70;;
55090;SDS011;40985;53.180;5.800;2023-08-07T06:35:37;13.85;;;1.00;;
55090;SDS011;40985;53.180;5.800;2023-08-07T06:38:04;8.07;;;1.17;;
55090;SDS011;40985;53.180;5.800;2023-08-07T06:40:30;14.85;;;2.03;;
55090;SDS011;40985;53.180;5.800;2023-08-07T06:42:56;9.70;;;0.98;;
55090;SDS011;40985;53.180;5.800;2023-08-07T06:45:21;6.47;;;0.73;;
55090;SDS011;40985;53.180;5.800;2023-08-07T06:47:47;6.15;;;0.60;;
55090;SDS011;40985;53.180;5.800;2023-08-07T06:50:13;6.28;;;0.50;;
55090;SDS011;40985;53.180;5.800;2023-08-07T06:52:39;8.30;;;1.10;;
55090;SDS011;40985;53.180;5.800;2023-08-07T06:55:05;12.20;;;0.98;;
55090;SDS011;40985;53.180;5.800;2023-08-07T06:57:31;12.95;;;1.42;;
55090;SDS011;40985;53.180;5.800;2023-08-07T06:59:56;11.73;;;1.65;;
55090;SDS011;40985;53.180;5.800;2023-08-07T07:02:22;8.75;;;1.75;;
55090;SDS011;40985;53.180;5.800;2023-08-07T07:04:48;13.50;;;1.60;;
55090;SDS011;40985;53.180;5.800;2023-08-07T07:07:13;15.15;;;2.33;;
55090;SDS011;40985;53.180;5.800;2023-08-07T07:09:39;10.65;;;1.33;;
55090;SDS011;40985;53.180;5.800;2023-08-07T07:12:05;9.88;;;1.23;;
55090;SDS011;40985;53.180;5.800;2023-08-07T07:14:32;5.15;;;0.88;;
55090;SDS011;40985;53.180;5.800;2023-08-07T07:16:58;8.55;;;0.90;;
55090;SDS011;40985;53.180;5.800;2023-08-07T07:19:24;7.60;;;1.05;;
55090;SDS011;40985;53.180;5.800;2023-08-07T07:21:50;10.35;;;1.08;;
55090;SDS011;40985;53.180;5.800;2023-08-07T07:24:17;8.25;;;0.93;;
55090;SDS011;40985;53.180;5.800;2023-08-07T07:26:42;10.23;;;1.38;;
55090;SDS011;40985;53.180;5.800;2023-08-07T07:29:08;5.78;;;0.68;;
55090;SDS011;40985;53.180;5.800;2023-08-07T07:31:34;2.42;;;0.50;;
55090;SDS011;40985;53.180;5.800;2023-08-07T07:34:00;1.67;;;0.40;;
55090;SDS011;40985;53.180;5.800;2023-08-07T07:36:25;2.72;;;0.50;;
55090;SDS011;40985;53.180;5.800;2023-08-07T07:38:51;10.07;;;0.82;;
55090;SDS011;40985;53.180;5.800;2023-08-07T07:41:17;4.65;;;0.50;;
55090;SDS011;40985;53.180;5.800;2023-08-07T07:43:43;5.30;;;0.52;;
55090;SDS011;40985;53.180;5.800;2023-08-07T07:46:09;10.45;;;0.75;;
55090;SDS011;40985;53.180;5.800;2023-08-07T07:48:35;8.20;;;1.10;;
55090;SDS011;40985;53.180;5.800;2023-08-07T07:51:04;8.00;;;1.13;;
55090;SDS011;40985;53.180;5.800;2023-08-07T07:53:29;10.73;;;1.42;;
55090;SDS011;40985;53.180;5.800;2023-08-07T07:55:56;7.45;;;1.13;;
55090;SDS011;40985;53.180;5.800;2023-08-07T07:58:21;12.13;;;1.58;;
55090;SDS011;40985;53.180;5.800;2023-08-07T08:00:48;9.32;;;0.90;;
55090;SDS011;40985;53.180;5.800;2023-08-07T08:03:14;9.50;;;1.10;;
55090;SDS011;40985;53.180;5.800;2023-08-07T08:05:39;7.82;;;1.05;;
55090;SDS011;40985;53.180;5.800;2023-08-07T08:08:05;12.88;;;2.25;;
55090;SDS011;40985;53.180;5.800;2023-08-07T08:10:35;5.97;;;0.77;;
55090;SDS011;40985;53.180;5.800;2023-08-07T08:13:01;5.50;;;1.08;;
55090;SDS011;40985;53.180;5.800;2023-08-07T08:15:29;7.35;;;0.60;;
55090;SDS011;40985;53.180;5.800;2023-08-07T08:17:55;7.93;;;1.40;;
55090;SDS011;40985;53.180;5.800;2023-08-07T08:20:20;6.07;;;0.50;;
55090;SDS011;40985;53.180;5.800;2023-08-07T08:22:46;7.63;;;1.08;;
55090;SDS011;40985;53.180;5.800;2023-08-07T08:25:12;6.32;;;0.55;;
55090;SDS011;40985;53.180;5.800;2023-08-07T08:27:38;7.80;;;0.70;;
55090;SDS011;40985;53.180;5.800;2023-08-07T08:30:04;4.40;;;0.70;;
55090;SDS011;40985;53.180;5.800;2023-08-07T08:32:31;5.60;;;1.00;;
55090;SDS011;40985;53.180;5.800;2023-08-07T08:34:57;5.05;;;0.70;;
55090;SDS011;40985;53.180;5.800;2023-08-07T08:37:22;4.40;;;1.02;;
55090;SDS011;40985;53.180;5.800;2023-08-07T08:39:48;11.35;;;1.13;;
55090;SDS011;40985;53.180;5.800;2023-08-07T08:42:14;4.88;;;0.80;;
55090;SDS011;40985;53.180;5.800;2023-08-07T08:44:53;4.95;;;0.40;;
55090;SDS011;40985;53.180;5.800;2023-08-07T08:47:21;4.03;;;0.60;;
55090;SDS011;40985;53.180;5.800;2023-08-07T08:49:48;6.10;;;0.60;;
55090;SDS011;40985;53.180;5.800;2023-08-07T08:52:15;3.33;;;0.40;;
55090;SDS011;40985;53.180;5.800;2023-08-07T08:54:42;6.68;;;0.77;;
55090;SDS011;40985;53.180;5.800;2023-08-07T08:57:08;6.30;;;0.70;;
55090;SDS011;40985;53.180;5.800;2023-08-07T08:59:36;6.80;;;0.68;;
55090;SDS011;40985;53.180;5.800;2023-08-07T09:02:01;7.55;;;0.73;;
55090;SDS011;40985;53.180;5.800;2023-08-07T09:04:28;5.75;;;0.88;;
55090;SDS011;40985;53.180;5.800;2023-08-07T09:06:54;9.38;;;1.70;;
55090;SDS011;40985;53.180;5.800;2023-08-07T09:09:20;8.30;;;1.10;;
55090;SDS011;40985;53.180;5.800;2023-08-07T09:11:47;6.03;;;0.50;;
55090;SDS011;40985;53.180;5.800;2023-08-07T09:14:16;5.28;;;0.80;;
55090;SDS011;40985;53.180;5.800;2023-08-07T09:16:46;5.30;;;0.82;;
55090;SDS011;40985;53.180;5.800;2023-08-07T09:19:13;5.85;;;1.58;;
55090;SDS011;40985;53.180;5.800;2023-08-07T09:21:39;6.25;;;0.63;;
55090;SDS011;40985;53.180;5.800;2023-08-07T09:24:05;6.47;;;1.00;;
55090;SDS011;40985;53.180;5.800;2023-08-07T09:26:32;4.93;;;0.50;;
55090;SDS011;40985;53.180;5.800;2023-08-07T09:28:58;4.60;;;0.43;;
55090;SDS011;40985;53.180;5.800;2023-08-07T09:31:24;7.07;;;0.70;;
55090;SDS011;40985;53.180;5.800;2023-08-07T09:33:51;6.13;;;0.43;;
55090;SDS011;40985;53.180;5.800;2023-08-07T09:36:17;5.13;;;0.55;;
55090;SDS011;40985;53.180;5.800;2023-08-07T09:38:43;8.85;;;0.90;;
55090;SDS011;40985;53.180;5.800;2023-08-07T09:41:09;3.00;;;0.50;;
55090;SDS011;40985;53.180;5.800;2023-08-07T09:43:35;6.63;;;0.82;;
55090;SDS011;40985;53.180;5.800;2023-08-07T09:46:05;4.10;;;0.50;;
55090;SDS011;40985;53.180;5.800;2023-08-07T09:48:32;6.82;;;1.20;;
55090;SDS011;40985;53.180;5.800;2023-08-07T09:51:07;8.95;;;1.13;;
55090;SDS011;40985;53.180;5.800;2023-08-07T09:53:33;6.57;;;0.50;;
55090;SDS011;40985;53.180;5.800;2023-08-07T09:55:59;6.28;;;0.60;;
55090;SDS011;40985;53.180;5.800;2023-08-07T09:58:25;4.43;;;0.60;;
55090;SDS011;40985;53.180;5.800;2023-08-07T10:00:51;5.75;;;0.50;;
55090;SDS011;40985;53.180;5.800;2023-08-07T10:03:24;6.90;;;0.68;;
55090;SDS011;40985;53.180;5.800;2023-08-07T10:05:51;6.60;;;0.75;;
55090;SDS011;40985;53.180;5.800;2023-08-07T10:08:16;4.22;;;0.43;;
55090;SDS011;40985;53.180;5.800;2023-08-07T10:10:43;4.00;;;0.47;;
55090;SDS011;40985;53.180;5.800;2023-08-07T10:13:09;5.13;;;0.40;;
55090;SDS011;40985;53.180;5.800;2023-08-07T10:15:38;9.80;;;0.65;;
55090;SDS011;40985;53.180;5.800;2023-08-07T10:18:07;5.40;;;0.45;;
55090;SDS011;40985;53.180;5.800;2023-08-07T10:20:33;5.60;;;0.50;;
55090;SDS011;40985;53.180;5.800;2023-08-07T10:23:00;5.82;;;0.50;;
55090;SDS011;40985;53.180;5.800;2023-08-07T10:25:32;5.82;;;0.50;;
55090;SDS011;40985;53.180;5.800;2023-08-07T10:27:59;5.07;;;0.50;;
55090;SDS011;40985;53.180;5.800;2023-08-07T10:30:26;11.90;;;0.80;;
55090;SDS011;40985;53.180;5.800;2023-08-07T10:32:53;5.75;;;0.90;;
55090;SDS011;40985;53.180;5.800;2023-08-07T10:35:23;7.20;;;0.88;;
55090;SDS011;40985;53.180;5.800;2023-08-07T10:37:50;6.93;;;0.47;;
55090;SDS011;40985;53.180;5.800;2023-08-07T10:40:17;6.30;;;0.40;;
55090;SDS011;40985;53.180;5.800;2023-08-07T10:45:19;3.58;;;0.47;;
55090;SDS011;40985;53.180;5.800;2023-08-07T10:47:56;6.20;;;0.50;;
55090;SDS011;40985;53.180;5.800;2023-08-07T10:50:30;5.32;;;0.60;;
55090;SDS011;40985;53.180;5.800;2023-08-07T10:52:59;5.82;;;0.68;;
55090;SDS011;40985;53.180;5.800;2023-08-07T10:55:25;6.38;;;0.60;;
55090;SDS011;40985;53.180;5.800;2023-08-07T10:57:52;5.10;;;0.60;;
55090;SDS011;40985;53.180;5.800;2023-08-07T11:00:21;3.47;;;0.45;;
55090;SDS011;40985;53.180;5.800;2023-08-07T11:02:52;5.50;;;0.50;;
55090;SDS011;40985;53.180;5.800;2023-08-07T11:05:17;4.93;;;0.50;;
55090;SDS011;40985;53.180;5.800;2023-08-07T11:07:44;5.40;;;0.40;;
55090;SDS011;40985;53.180;5.800;2023-08-07T11:10:12;5.22;;;0.65;;
55090;SDS011;40985;53.180;5.800;2023-08-07T11:12:40;7.22;;;0.60;;
55090;SDS011;40985;53.180;5.800;2023-08-07T11:15:06;6.13;;;0.77;;
55090;SDS011;40985;53.180;5.800;2023-08-07T11:17:32;5.70;;;1.13;;
55090;SDS011;40985;53.180;5.800;2023-08-07T11:19:58;7.25;;;0.77;;
55090;SDS011;40985;53.180;5.800;2023-08-07T11:22:24;5.15;;;0.50;;
55090;SDS011;40985;53.180;5.800;2023-08-07T11:24:50;4.82;;;0.60;;
55090;SDS011;40985;53.180;5.800;2023-08-07T11:27:16;5.32;;;0.60;;
55090;SDS011;40985;53.180;5.800;2023-08-07T11:29:45;6.50;;;1.15;;
55090;SDS011;40985;53.180;5.800;2023-08-07T11:32:12;9.55;;;0.90;;
55090;SDS011;40985;53.180;5.800;2023-08-07T11:34:39;7.85;;;0.82;;
55090;SDS011;40985;53.180;5.800;2023-08-07T11:37:05;7.88;;;1.10;;
55090;SDS011;40985;53.180;5.800;2023-08-07T11:39:30;8.40;;;1.73;;
55090;SDS011;40985;53.180;5.800;2023-08-07T11:41:56;3.70;;;0.60;;
55090;SDS011;40985;53.180;5.800;2023-08-07T11:44:22;3.80;;;0.73;;
55090;SDS011;40985;53.180;5.800;2023-08-07T11:46:49;2.75;;;0.60;;
55090;SDS011;40985;53.180;5.800;2023-08-07T11:49:16;3.92;;;0.50;;
55090;SDS011;40985;53.180;5.800;2023-08-07T11:51:42;4.38;;;0.52;;
55090;SDS011;40985;53.180;5.800;2023-08-07T11:54:14;2.70;;;0.50;;
55090;SDS011;40985;53.180;5.800;2023-08-07T11:59:08;6.43;;;0.95;;
55090;SDS011;40985;53.180;5.800;2023-08-07T12:01:36;4.93;;;0.43;;
55090;SDS011;40985;53.180;5.800;2023-08-07T12:06:33;8.27;;;1.02;;
55090;SDS011;40985;53.180;5.800;2023-08-07T12:09:07;7.40;;;0.80;;
55090;SDS011;40985;53.180;5.800;2023-08-07T12:11:37;2.85;;;0.43;;
55090;SDS011;40985;53.180;5.800;2023-08-07T12:14:03;3.13;;;0.70;;
55090;SDS011;40985;53.180;5.800;2023-08-07T12:16:32;4.30;;;0.50;;
55090;SDS011;40985;53.180;5.800;2023-08-07T12:18:59;6.25;;;0.60;;
55090;SDS011;40985;53.180;5.800;2023-08-07T12:21:25;3.83;;;0.50;;
55090;SDS011;40985;53.180;5.800;2023-08-07T12:23:54;6.95;;;0.60;;
55090;SDS011;40985;53.180;5.800;2023-08-07T12:26:21;3.60;;;0.40;;
55090;SDS011;40985;53.180;5.800;2023-08-07T12:28:47;6.95;;;1.25;;
55090;SDS011;40985;53.180;5.800;2023-08-07T12:31:13;6.28;;;0.50;;
55090;SDS011;40985;53.180;5.800;2023-08-07T12:33:38;4.10;;;0.50;;
55090;SDS011;40985;53.180;5.800;2023-08-07T12:36:04;3.40;;;0.60;;
55090;SDS011;40985;53.180;5.800;2023-08-07T12:38:30;4.03;;;0.80;;
55090;SDS011;40985;53.180;5.800;2023-08-07T12:40:56;3.28;;;0.80;;
55090;SDS011;40985;53.180;5.800;2023-08-07T12:43:22;5.03;;;0.80;;
55090;SDS011;40985;53.180;5.800;2023-08-07T12:45:48;3.92;;;0.60;;
55090;SDS011;40985;53.180;5.800;2023-08-07T12:48:13;3.38;;;0.77;;
55090;SDS011;40985;53.180;5.800;2023-08-07T12:50:39;8.25;;;0.70;;
55090;SDS011;40985;53.180;5.800;2023-08-07T12:53:06;5.85;;;0.80;;
55090;SDS011;40985;53.180;5.800;2023-08-07T12:55:31;9.05;;;1.33;;
55090;SDS011;40985;53.180;5.800;2023-08-07T12:57:57;6.40;;;1.42;;
55090;SDS011;40985;53.180;5.800;2023-08-07T13:00:23;6.03;;;1.00;;
55090;SDS011;40985;53.180;5.800;2023-08-07T13:02:50;5.18;;;1.27;;
55090;SDS011;40985;53.180;5.800;2023-08-07T13:05:17;6.93;;;0.70;;
55090;SDS011;40985;53.180;5.800;2023-08-07T13:07:44;4.60;;;0.63;;
55090;SDS011;40985;53.180;5.800;2023-08-07T13:10:11;4.22;;;0.70;;
55090;SDS011;40985;53.180;5.800;2023-08-07T13:12:39;3.70;;;0.50;;
55090;SDS011;40985;53.180;5.800;2023-08-07T13:15:06;6.65;;;0.52;;
55090;SDS011;40985;53.180;5.800;2023-08-07T13:17:34;8.23;;;0.85;;
55090;SDS011;40985;53.180;5.800;2023-08-07T13:20:00;5.38;;;0.70;;
55090;SDS011;40985;53.180;5.800;2023-08-07T13:22:33;5.57;;;0.60;;
55090;SDS011;40985;53.180;5.800;2023-08-07T13:25:02;5.05;;;1.08;;
55090;SDS011;40985;53.180;5.800;2023-08-07T13:27:29;3.92;;;0.40;;
55090;SDS011;40985;53.180;5.800;2023-08-07T13:29:55;2.95;;;0.40;;
55090;SDS011;40985;53.180;5.800;2023-08-07T13:32:21;4.35;;;0.63;;
55090;SDS011;40985;53.180;5.800;2023-08-07T13:34:46;5.63;;;0.70;;
55090;SDS011;40985;53.180;5.800;2023-08-07T13:37:13;5.28;;;1.48;;
55090;SDS011;40985;53.180;5.800;2023-08-07T13:39:39;3.97;;;0.55;;
55090;SDS011;40985;53.180;5.800;2023-08-07T13:42:05;3.60;;;0.70;;
55090;SDS011;40985;53.180;5.800;2023-08-07T13:44:31;8.18;;;1.05;;
55090;SDS011;40985;53.180;5.800;2023-08-07T13:46:57;4.70;;;0.70;;
55090;SDS011;40985;53.180;5.800;2023-08-07T13:49:22;3.50;;;0.50;;
55090;SDS011;40985;53.180;5.800;2023-08-07T13:51:48;2.70;;;0.40;;
55090;SDS011;40985;53.180;5.800;2023-08-07T13:54:15;4.20;;;0.50;;
55090;SDS011;40985;53.180;5.800;2023-08-07T13:56:40;1.70;;;0.38;;
55090;SDS011;40985;53.180;5.800;2023-08-07T13:59:06;5.03;;;0.47;;
55090;SDS011;40985;53.180;5.800;2023-08-07T14:01:33;4.53;;;0.50;;
55090;SDS011;40985;53.180;5.800;2023-08-07T14:04:00;7.43;;;0.50;;
55090;SDS011;40985;53.180;5.800;2023-08-07T14:06:26;5.45;;;0.40;;
55090;SDS011;40985;53.180;5.800;2023-08-07T14:08:52;3.72;;;0.40;;
55090;SDS011;40985;53.180;5.800;2023-08-07T14:11:17;5.20;;;0.82;;
55090;SDS011;40985;53.180;5.800;2023-08-07T14:13:44;4.18;;;0.40;;
55090;SDS011;40985;53.180;5.800;2023-08-07T14:16:11;2.45;;;0.22;;
55090;SDS011;40985;53.180;5.800;2023-08-07T14:18:37;4.03;;;0.50;;
55090;SDS011;40985;53.180;5.800;2023-08-07T14:21:03;2.13;;;0.45;;
55090;SDS011;40985;53.180;5.800;2023-08-07T14:23:28;6.38;;;0.40;;
55090;SDS011;40985;53.180;5.800;2023-08-07T14:25:54;4.28;;;0.30;;
55090;SDS011;40985;53.180;5.800;2023-08-07T14:28:20;5.05;;;1.25;;
55090;SDS011;40985;53.180;5.800;2023-08-07T14:30:47;4.72;;;0.82;;
55090;SDS011;40985;53.180;5.800;2023-08-07T14:33:12;4.45;;;0.50;;
55090;SDS011;40985;53.180;5.800;2023-08-07T14:35:38;4.07;;;0.40;;
55090;SDS011;40985;53.180;5.800;2023-08-07T14:38:04;5.07;;;0.32;;
55090;SDS011;40985;53.180;5.800;2023-08-07T14:40:30;1.85;;;0.30;;
55090;SDS011;40985;53.180;5.800;2023-08-07T14:42:55;6.68;;;0.30;;
55090;SDS011;40985;53.180;5.800;2023-08-07T14:45:21;2.83;;;0.30;;
55090;SDS011;40985;53.180;5.800;2023-08-07T14:47:48;3.85;;;0.55;;
55090;SDS011;40985;53.180;5.800;2023-08-07T14:50:14;3.63;;;0.30;;
55090;SDS011;40985;53.180;5.800;2023-08-07T14:52:41;3.53;;;0.38;;